Time;durP1;ratioP1;P1;durP2;ratioP2;P2;SDS_P1;SDS_P2;PMS_P1;PMS_P2;Temp;Humidity;BMP_temperature;BMP_pressure;BME280_temperature;BME280_humidity;BME280_pressure;Samples;Min_cycle;Max_cycle;Signal;HPM_P1;HPM_P2
2022/03/05 00:02:09;;;;;;;12.20;9.63;;;2.10;99.00;;;;;;5033445;28;20248;-69
2022/03/05 00:04:34;;;;;;;10.90;9.47;;;2.10;98.60;;;;;;5033569;28;20164;-69
2022/03/05 00:07:00;;;;;;;12.20;10.23;;;2.10;98.60;;;;;;5034006;28;20643;-69
2022/03/05 00:09:25;;;;;;;14.30;10.80;;;2.10;98.90;;;;;;5032989;28;20167;-69
2022/03/05 00:11:51;;;;;;;12.40;9.87;;;2.00;99.10;;;;;;5033553;28;20304;-69
2022/03/05 00:14:16;;;;;;;14.27;10.47;;;2.10;99.10;;;;;;5033477;28;20546;-70
2022/03/05 00:16:42;;;;;;;14.27;10.23;;;2.10;99.00;;;;;;5033469;28;20249;-69
2022/03/05 00:19:08;;;;;;;15.83;10.37;;;2.00;99.10;;;;;;5033392;28;20217;-69
2022/03/05 00:21:33;;;;;;;12.07;9.07;;;1.90;99.10;;;;;;5033462;28;20206;-70
2022/03/05 00:23:59;;;;;;;10.90;8.90;;;2.00;99.20;;;;;;5032828;28;20172;-69
2022/03/05 00:26:25;;;;;;;12.60;10.87;;;1.90;99.40;;;;;;5032288;28;20517;-69
2022/03/05 00:28:51;;;;;;;10.97;9.27;;;1.90;99.40;;;;;;5033158;28;20232;-70
2022/03/05 00:31:17;;;;;;;11.70;9.00;;;1.90;99.50;;;;;;5033183;28;20405;-71
2022/03/05 00:33:42;;;;;;;13.37;8.90;;;1.90;99.70;;;;;;5016918;28;20892;-69
2022/03/05 00:36:08;;;;;;;10.67;8.67;;;1.80;99.60;;;;;;5013706;28;20290;-69
2022/03/05 00:38:34;;;;;;;11.73;10.03;;;1.80;99.80;;;;;;5011966;28;20194;-69
2022/03/05 00:40:59;;;;;;;14.50;10.60;;;1.80;99.90;;;;;;5032641;28;20212;-70
2022/03/05 00:43:25;;;;;;;11.50;9.37;;;1.80;99.90;;;;;;5070433;22;20243;-69
2022/03/05 00:45:51;;;;;;;10.37;8.83;;;1.90;99.90;;;;;;5033133;28;20163;-70
2022/03/05 00:48:16;;;;;;;12.43;10.00;;;1.90;99.90;;;;;;5032579;28;20217;-70
2022/03/05 00:50:42;;;;;;;11.50;9.47;;;2.00;99.90;;;;;;5032715;28;20206;-70
2022/03/05 00:53:11;;;;;;;10.63;9.43;;;1.90;99.90;;;;;;5033092;28;20263;-70
2022/03/05 00:55:37;;;;;;;12.00;8.93;;;1.80;99.90;;;;;;5015133;28;20172;-70
2022/03/05 00:58:02;;;;;;;14.07;8.80;;;1.80;99.90;;;;;;5032848;28;20403;-69
2022/03/05 01:00:28;;;;;;;11.80;9.10;;;1.80;99.90;;;;;;5037401;28;20413;-70
2022/03/05 01:02:54;;;;;;;14.07;9.57;;;1.80;99.90;;;;;;5036827;28;20453;-70
2022/03/05 01:05:20;;;;;;;10.20;8.20;;;1.80;99.90;;;;;;5036936;28;20171;-70
2022/03/05 01:07:46;;;;;;;11.27;7.77;;;1.80;99.90;;;;;;5037300;28;20708;-68
2022/03/05 01:10:11;;;;;;;10.77;8.57;;;1.80;99.90;;;;;;5018834;28;20299;-68
2022/03/05 01:12:37;;;;;;;13.40;8.50;;;1.80;99.90;;;;;;5036354;28;20449;-68
2022/03/05 01:15:04;;;;;;;12.10;8.77;;;1.80;99.90;;;;;;5036948;28;20171;-69
2022/03/05 01:17:30;;;;;;;11.93;8.67;;;1.80;99.90;;;;;;5036645;28;20956;-69
2022/03/05 01:19:55;;;;;;;10.43;8.77;;;1.80;99.90;;;;;;5036917;28;20401;-69
2022/03/05 01:22:21;;;;;;;11.73;9.70;;;1.80;99.90;;;;;;5036379;28;20206;-69
2022/03/05 01:24:46;;;;;;;10.93;8.23;;;1.80;99.90;;;;;;5036478;28;20182;-69
2022/03/05 01:27:12;;;;;;;10.43;9.33;;;1.70;99.90;;;;;;5036396;28;20630;-69
2022/03/05 01:29:38;;;;;;;10.90;9.00;;;1.60;99.90;;;;;;5018374;28;20166;-68
2022/03/05 01:32:04;;;;;;;10.00;8.27;;;1.50;99.90;;;;;;5036316;28;20405;-68
2022/03/05 01:34:30;;;;;;;10.20;8.20;;;1.50;99.90;;;;;;5018556;28;20174;-68
2022/03/05 01:36:55;;;;;;;10.83;8.27;;;1.40;99.90;;;;;;5036537;28;20170;-68
2022/03/05 01:39:21;;;;;;;10.70;8.30;;;1.40;99.90;;;;;;5034513;28;20171;-69
2022/03/05 01:41:48;;;;;;;12.33;8.60;;;1.30;99.90;;;;;;5018354;28;20202;-68
2022/03/05 01:44:14;;;;;;;10.57;8.77;;;1.40;99.90;;;;;;5036217;28;20214;-69
2022/03/05 01:46:40;;;;;;;10.83;9.30;;;1.40;99.90;;;;;;5036103;28;20405;-69
2022/03/05 01:49:09;;;;;;;11.67;10.03;;;1.30;99.90;;;;;;5036347;28;20519;-69
2022/03/05 01:51:36;;;;;;;12.17;8.60;;;1.20;99.90;;;;;;5036229;28;20437;-69
2022/03/05 01:54:03;;;;;;;11.80;9.53;;;1.30;99.90;;;;;;5018203;28;20467;-69
2022/03/05 01:56:30;;;;;;;10.70;9.13;;;1.40;99.90;;;;;;5036098;28;20405;-69
2022/03/05 01:58:55;;;;;;;12.57;10.30;;;1.40;99.90;;;;;;5036430;28;20406;-69
2022/03/05 02:01:23;;;;;;;12.07;10.03;;;1.30;99.90;;;;;;5035702;28;21052;-69
2022/03/05 02:03:49;;;;;;;11.40;8.53;;;1.50;99.90;;;;;;5004630;28;20952;-69
2022/03/05 02:06:15;;;;;;;11.73;9.60;;;1.50;99.90;;;;;;4998383;28;20929;-68
2022/03/05 02:08:41;;;;;;;13.40;9.90;;;1.60;99.90;;;;;;5015713;28;20449;-69
2022/03/05 02:11:06;;;;;;;11.40;9.10;;;1.60;99.90;;;;;;5015074;28;20562;-69
2022/03/05 02:13:32;;;;;;;12.83;9.03;;;1.60;99.90;;;;;;5016266;28;20241;-69
2022/03/05 02:15:59;;;;;;;11.90;9.43;;;1.60;99.90;;;;;;5015745;28;20175;-68
2022/03/05 02:18:26;;;;;;;13.87;9.70;;;1.60;99.90;;;;;;5015790;28;20168;-69
2022/03/05 02:20:52;;;;;;;13.93;10.67;;;1.60;99.90;;;;;;5016219;28;20445;-68
2022/03/05 02:23:18;;;;;;;12.40;9.50;;;1.50;99.90;;;;;;4998113;28;20431;-69
2022/03/05 02:26:13;;;;;;;11.00;9.57;;;1.50;99.90;;;;;;5015240;28;20414;-68
2022/03/05 02:28:39;;;;;;;14.60;10.00;;;1.40;99.90;;;;;;5003149;28;20425;-68
2022/03/05 02:31:06;;;;;;;13.40;10.90;;;1.30;99.90;;;;;;5015812;28;20414;-69
2022/03/05 02:33:32;;;;;;;15.10;10.93;;;1.30;99.90;;;;;;4994464;28;20639;-69
2022/03/05 02:35:57;;;;;;;13.17;10.10;;;1.30;99.90;;;;;;4996214;28;20795;-68
2022/03/05 02:38:24;;;;;;;16.97;11.23;;;1.20;99.90;;;;;;4996006;28;20415;-69
2022/03/05 02:40:51;;;;;;;14.67;10.93;;;1.30;99.90;;;;;;5024851;28;20734;-70
2022/03/05 02:43:17;;;;;;;10.53;9.27;;;1.20;99.90;;;;;;5017904;28;20481;-69
2022/03/05 02:45:44;;;;;;;14.97;10.20;;;1.20;99.90;;;;;;5036541;28;20407;-69
2022/03/05 02:48:12;;;;;;;15.03;10.83;;;1.30;99.90;;;;;;5018562;28;20447;-71
2022/03/05 02:50:38;;;;;;;13.13;9.87;;;1.40;99.90;;;;;;5036211;28;20432;-70
2022/03/05 02:53:04;;;;;;;13.07;10.10;;;1.40;99.90;;;;;;5038699;28;20885;-78
2022/03/05 02:55:30;;;;;;;12.50;9.27;;;1.50;99.90;;;;;;5038511;28;20452;-71
2022/03/05 02:57:57;;;;;;;10.47;8.97;;;1.40;99.90;;;;;;5037395;28;20440;-69
2022/03/05 03:00:22;;;;;;;11.73;9.43;;;1.40;99.90;;;;;;5035046;28;20412;-70
2022/03/05 03:02:49;;;;;;;12.50;9.63;;;1.40;99.90;;;;;;5035031;28;20605;-69
2022/03/05 03:05:16;;;;;;;11.30;8.90;;;1.30;99.90;;;;;;5034897;28;20175;-68
2022/03/05 03:07:42;;;;;;;9.43;8.43;;;1.30;99.90;;;;;;5034977;28;20403;-70
2022/03/05 03:10:10;;;;;;;14.13;9.00;;;1.20;99.90;;;;;;5034531;28;20433;-70
2022/03/05 03:12:36;;;;;;;11.20;9.10;;;1.20;99.90;;;;;;5034833;28;20440;-71
2022/03/05 03:15:04;;;;;;;11.87;9.40;;;1.10;99.90;;;;;;5035225;28;20418;-69
2022/03/05 03:17:30;;;;;;;12.50;9.83;;;1.10;99.90;;;;;;5034834;28;20475;-69
2022/03/05 03:19:55;;;;;;;13.10;9.30;;;1.20;99.90;;;;;;5017183;28;20519;-69
2022/03/05 03:22:21;;;;;;;10.93;8.20;;;1.20;99.90;;;;;;5033854;28;20486;-70
2022/03/05 03:24:47;;;;;;;12.43;9.13;;;1.10;99.90;;;;;;5016782;28;20550;-69
2022/03/05 03:27:13;;;;;;;10.60;8.53;;;1.20;99.90;;;;;;5034635;28;20170;-70
2022/03/05 03:29:38;;;;;;;13.30;9.60;;;1.10;99.90;;;;;;5034831;28;20177;-70
2022/03/05 03:32:04;;;;;;;11.90;8.83;;;1.20;99.90;;;;;;5034513;28;20449;-68
2022/03/05 03:34:30;;;;;;;11.90;9.20;;;1.20;99.90;;;;;;5034399;28;20177;-69
2022/03/05 03:36:55;;;;;;;12.03;10.03;;;1.20;99.90;;;;;;5034307;28;20406;-70
2022/03/05 03:39:21;;;;;;;10.17;8.40;;;1.20;99.90;;;;;;5033437;28;20172;-70
2022/03/05 03:41:47;;;;;;;11.87;9.30;;;1.20;99.90;;;;;;5033818;28;20204;-68
2022/03/05 03:44:13;;;;;;;14.30;9.47;;;1.10;99.90;;;;;;5034257;28;20214;-69
2022/03/05 03:46:38;;;;;;;9.40;8.30;;;1.00;99.90;;;;;;5034400;28;20459;-69
2022/03/05 03:49:04;;;;;;;12.17;8.90;;;1.00;99.90;;;;;;5034920;28;20325;-69
2022/03/05 03:51:30;;;;;;;13.40;8.87;;;0.90;99.90;;;;;;5016745;28;20689;-69
2022/03/05 03:53:56;;;;;;;13.10;9.17;;;0.90;99.90;;;;;;5034179;28;20464;-69
2022/03/05 03:56:21;;;;;;;11.67;8.23;;;1.00;99.90;;;;;;5033795;28;20174;-70
2022/03/05 03:58:47;;;;;;;10.93;7.90;;;1.00;99.90;;;;;;5034031;28;20549;-70
2022/03/05 04:01:13;;;;;;;11.97;8.70;;;1.00;99.90;;;;;;5034723;28;20645;-69
2022/03/05 04:03:39;;;;;;;13.80;9.80;;;0.90;99.90;;;;;;5034616;28;20203;-70
2022/03/05 04:06:04;;;;;;;14.10;10.30;;;0.80;99.90;;;;;;5034391;28;20485;-70
2022/03/05 04:08:42;;;;;;;11.80;9.23;;;0.80;99.90;;;;;;5034154;28;20177;-69
2022/03/05 04:11:13;;;;;;;13.23;9.40;;;0.80;99.90;;;;;;5033784;28;20281;-69
2022/03/05 04:13:40;;;;;;;15.87;11.03;;;0.80;99.90;;;;;;5016544;28;20445;-70
2022/03/05 04:16:06;;;;;;;12.00;9.00;;;0.80;99.90;;;;;;5033875;28;20504;-70
2022/03/05 04:18:32;;;;;;;13.63;10.70;;;0.80;99.90;;;;;;5034476;28;20791;-68
2022/03/05 04:20:58;;;;;;;13.23;9.47;;;0.70;99.90;;;;;;5033826;28;20836;-69
2022/03/05 04:23:24;;;;;;;10.90;8.57;;;0.70;99.90;;;;;;5033571;28;20463;-70
2022/03/05 04:25:50;;;;;;;15.13;10.53;;;0.80;99.90;;;;;;5015573;28;20180;-70
2022/03/05 04:28:16;;;;;;;11.90;9.70;;;0.70;99.90;;;;;;5034240;28;20176;-69
2022/03/05 04:30:43;;;;;;;13.57;9.50;;;0.70;99.90;;;;;;4998727;28;20185;-70
2022/03/05 04:33:09;;;;;;;14.47;9.80;;;0.80;99.90;;;;;;4994417;28;20446;-71
2022/03/05 04:35:34;;;;;;;12.70;9.90;;;0.80;99.90;;;;;;4994302;28;20413;-70
2022/03/05 04:38:00;;;;;;;19.60;11.80;;;0.70;99.90;;;;;;4994460;28;20422;-70
2022/03/05 04:40:26;;;;;;;11.77;9.87;;;0.70;99.90;;;;;;5009314;28;20185;-70
2022/03/05 04:42:52;;;;;;;15.20;9.93;;;0.70;99.90;;;;;;5033118;28;20213;-69
2022/03/05 04:45:17;;;;;;;13.07;9.70;;;0.70;99.90;;;;;;5015678;28;20415;-69
2022/03/05 04:47:43;;;;;;;12.10;9.27;;;0.70;99.90;;;;;;5033859;28;20630;-71
2022/03/05 04:50:09;;;;;;;14.93;10.07;;;0.70;99.90;;;;;;5034931;28;20176;-68
2022/03/05 04:52:35;;;;;;;15.73;10.10;;;0.70;99.90;;;;;;5034944;28;20196;-70
2022/03/05 04:55:05;;;;;;;15.00;9.83;;;0.60;99.90;;;;;;5024312;28;20424;-69
2022/03/05 04:57:31;;;;;;;12.33;9.67;;;0.60;99.90;;;;;;5006153;28;20443;-69
2022/03/05 04:59:57;;;;;;;11.80;9.87;;;0.60;99.90;;;;;;5014988;28;20410;-69
2022/03/05 05:02:23;;;;;;;13.73;10.93;;;0.50;99.90;;;;;;4996713;28;20461;-69
2022/03/05 05:04:48;;;;;;;17.57;11.33;;;0.50;99.90;;;;;;5015204;28;20165;-70
2022/03/05 05:07:15;;;;;;;13.07;9.60;;;0.50;99.90;;;;;;5015213;28;20166;-69
2022/03/05 05:09:42;;;;;;;14.27;11.13;;;0.30;99.90;;;;;;5013262;28;20185;-68
2022/03/05 05:12:09;;;;;;;20.13;12.20;;;0.40;99.90;;;;;;5013861;28;20417;-70
2022/03/05 05:14:34;;;;;;;16.97;11.00;;;0.40;99.90;;;;;;5013985;28;20420;-69
2022/03/05 05:17:00;;;;;;;14.30;11.00;;;0.40;99.90;;;;;;5014268;28;20409;-70
2022/03/05 05:19:29;;;;;;;13.87;10.70;;;0.30;99.90;;;;;;5013973;28;20235;-70
2022/03/05 05:22:00;;;;;;;13.70;10.17;;;0.40;99.90;;;;;;5015585;28;20213;-71
2022/03/05 05:24:28;;;;;;;18.87;11.70;;;0.40;99.90;;;;;;5008926;28;20424;-69
2022/03/05 05:26:54;;;;;;;14.57;10.70;;;0.30;99.90;;;;;;5008171;28;20904;-69
2022/03/05 05:29:21;;;;;;;14.10;10.97;;;0.30;99.90;;;;;;5014467;28;20413;-69
2022/03/05 05:31:47;;;;;;;16.43;12.20;;;0.30;99.90;;;;;;5014112;28;20421;-69
2022/03/05 05:34:12;;;;;;;18.73;11.23;;;0.30;99.90;;;;;;5014225;28;20425;-68
2022/03/05 05:36:38;;;;;;;17.93;12.30;;;0.30;99.90;;;;;;5014555;28;20779;-70
2022/03/05 05:39:08;;;;;;;17.43;12.33;;;0.30;99.90;;;;;;5015198;28;20704;-71
2022/03/05 05:41:36;;;;;;;18.57;12.60;;;0.30;99.90;;;;;;5030272;28;20242;-69
2022/03/05 05:44:06;;;;;;;19.37;13.10;;;0.30;99.90;;;;;;5033489;28;20452;-70
2022/03/05 05:46:32;;;;;;;17.23;12.60;;;0.30;99.90;;;;;;5035958;28;20993;-68
2022/03/05 05:48:58;;;;;;;15.67;13.20;;;0.30;99.90;;;;;;5036512;28;20418;-69
2022/03/05 05:51:25;;;;;;;17.80;12.43;;;0.30;99.90;;;;;;5036037;28;20404;-67
2022/03/05 05:53:51;;;;;;;15.73;11.70;;;0.30;99.90;;;;;;5035380;28;20827;-66
2022/03/05 05:56:17;;;;;;;19.70;13.83;;;0.30;99.90;;;;;;5018365;28;20425;-68
2022/03/05 05:58:43;;;;;;;15.27;11.80;;;0.20;99.90;;;;;;5018680;28;20205;-67
2022/03/05 06:01:08;;;;;;;20.80;14.77;;;0.30;99.90;;;;;;5036072;28;20170;-68
2022/03/05 06:03:34;;;;;;;22.20;13.53;;;0.10;99.90;;;;;;5036400;28;20599;-68
2022/03/05 06:06:00;;;;;;;16.87;12.40;;;0.10;99.90;;;;;;5036017;28;20169;-68
2022/03/05 06:08:26;;;;;;;18.63;13.20;;;0.10;99.90;;;;;;5036273;28;20174;-68
2022/03/05 06:10:53;;;;;;;16.20;12.70;;;0.10;99.90;;;;;;5035630;28;20397;-69
2022/03/05 06:13:20;;;;;;;19.50;13.53;;;0.20;99.90;;;;;;5035815;28;20467;-70
2022/03/05 06:15:45;;;;;;;17.43;13.70;;;0.20;99.90;;;;;;5034615;28;20918;-69
2022/03/05 06:18:11;;;;;;;21.17;14.77;;;0.20;99.90;;;;;;5036246;28;20506;-70
2022/03/05 06:20:37;;;;;;;18.33;12.80;;;0.10;99.90;;;;;;5035561;28;20160;-69
2022/03/05 06:23:02;;;;;;;16.33;13.03;;;0.10;99.90;;;;;;5035926;28;20215;-69
2022/03/05 06:25:28;;;;;;;20.73;14.33;;;0.20;99.90;;;;;;5018481;28;20665;-68
2022/03/05 06:27:54;;;;;;;21.83;15.03;;;0.10;99.90;;;;;;5015830;28;20403;-69
2022/03/05 06:30:21;;;;;;;21.63;14.67;;;0.10;99.90;;;;;;5015515;28;20169;-68
2022/03/05 06:32:46;;;;;;;18.50;14.40;;;0.20;99.90;;;;;;5015385;28;20248;-68
2022/03/05 06:35:12;;;;;;;19.90;14.50;;;0.30;99.90;;;;;;5015284;28;20402;-69
2022/03/05 06:37:38;;;;;;;17.90;12.73;;;0.30;99.90;;;;;;5015309;28;20220;-69
2022/03/05 06:40:05;;;;;;;19.73;14.03;;;0.30;99.90;;;;;;5015763;28;20449;-69
2022/03/05 06:44:58;;;;;;;19.80;14.33;;;0.40;99.90;;;;;;5012944;28;20862;-68
2022/03/05 06:47:24;;;;;;;19.90;14.27;;;0.30;99.90;;;;;;5015107;28;20397;-67
2022/03/05 06:49:50;;;;;;;19.70;14.80;;;0.30;99.90;;;;;;5046868;28;20243;-67
2022/03/05 06:52:15;;;;;;;24.10;16.33;;;0.40;99.90;;;;;;5014976;28;20177;-67
2022/03/05 06:54:41;;;;;;;21.33;15.17;;;0.50;99.90;;;;;;5014732;28;20194;-69
2022/03/05 06:57:07;;;;;;;19.83;13.90;;;0.50;99.90;;;;;;5013737;28;20175;-68
2022/03/05 06:59:33;;;;;;;18.90;14.93;;;0.50;99.90;;;;;;5014437;28;20902;-68
2022/03/05 07:01:59;;;;;;;22.57;15.60;;;0.60;99.90;;;;;;5014770;28;20464;-69
2022/03/05 07:04:25;;;;;;;21.47;14.70;;;0.70;99.90;;;;;;5014697;28;20618;-69
2022/03/05 07:06:51;;;;;;;20.17;14.40;;;0.70;99.90;;;;;;5015310;28;20411;-69
2022/03/05 07:09:16;;;;;;;21.60;14.83;;;0.70;99.90;;;;;;5013191;28;20445;-68
2022/03/05 07:11:42;;;;;;;18.20;14.30;;;0.70;99.90;;;;;;5014314;28;20261;-68
2022/03/05 07:14:07;;;;;;;23.20;15.00;;;0.80;99.90;;;;;;5014247;28;20205;-68
2022/03/05 07:16:33;;;;;;;20.47;15.27;;;0.80;99.90;;;;;;5014580;28;20206;-67
2022/03/05 07:18:58;;;;;;;22.23;14.53;;;0.90;99.90;;;;;;5014513;28;20207;-68
2022/03/05 07:21:24;;;;;;;17.17;13.47;;;1.10;99.90;;;;;;5014877;28;20194;-68
2022/03/05 07:23:50;;;;;;;20.63;14.60;;;1.20;99.90;;;;;;5014791;28;20276;-68
2022/03/05 07:26:17;;;;;;;19.37;13.93;;;1.20;99.90;;;;;;5014222;28;20406;-69
2022/03/05 07:28:46;;;;;;;19.10;14.47;;;1.30;99.90;;;;;;5014327;28;20183;-69
2022/03/05 07:31:12;;;;;;;18.93;13.50;;;1.40;99.90;;;;;;5013156;28;20780;-69
2022/03/05 07:33:37;;;;;;;20.73;13.73;;;1.50;99.90;;;;;;5012935;28;20453;-68
2022/03/05 07:36:04;;;;;;;18.40;13.03;;;1.50;99.90;;;;;;5013392;28;20209;-70
2022/03/05 07:38:31;;;;;;;16.70;14.57;;;1.60;99.90;;;;;;5013809;28;20171;-70
2022/03/05 07:40:57;;;;;;;16.93;13.00;;;1.60;99.90;;;;;;5012288;28;20457;-69
2022/03/05 07:43:23;;;;;;;19.50;14.20;;;1.80;99.90;;;;;;5013503;28;20485;-69
2022/03/05 07:45:48;;;;;;;20.23;13.30;;;1.90;99.90;;;;;;5014195;28;20559;-68
2022/03/05 07:48:14;;;;;;;17.67;13.87;;;2.10;99.90;;;;;;5013553;28;20661;-68
2022/03/05 07:50:41;;;;;;;20.80;14.27;;;2.20;99.90;;;;;;5012662;28;20239;-68
2022/03/05 07:53:07;;;;;;;17.90;14.10;;;2.20;99.90;;;;;;5013369;28;20456;-68
2022/03/05 07:55:33;;;;;;;23.40;16.40;;;2.30;99.90;;;;;;5013034;28;20403;-69
2022/03/05 07:57:58;;;;;;;18.23;13.57;;;2.20;99.90;;;;;;5013445;28;20962;-68
2022/03/05 08:00:24;;;;;;;18.70;14.50;;;2.40;99.90;;;;;;5013496;28;20176;-68
2022/03/05 08:02:52;;;;;;;20.43;16.27;;;2.60;99.90;;;;;;5012982;28;20288;-68
2022/03/05 08:05:18;;;;;;;18.87;13.37;;;2.60;99.90;;;;;;5013280;28;20168;-68
2022/03/05 08:07:44;;;;;;;19.23;14.43;;;2.50;99.90;;;;;;5012947;28;20430;-68
2022/03/05 08:10:10;;;;;;;18.97;14.17;;;2.70;99.90;;;;;;5013229;28;20399;-68
2022/03/05 08:12:36;;;;;;;22.63;15.50;;;2.90;99.90;;;;;;5012882;28;20596;-68
2022/03/05 08:15:03;;;;;;;22.00;16.43;;;3.10;99.90;;;;;;5013488;28;20160;-68
2022/03/05 08:17:29;;;;;;;23.80;16.30;;;3.20;99.90;;;;;;5012627;28;20422;-68
2022/03/05 08:19:55;;;;;;;24.27;16.87;;;3.20;99.90;;;;;;5013775;28;20766;-68
2022/03/05 08:22:21;;;;;;;23.10;15.50;;;3.30;99.90;;;;;;5013425;28;20227;-68
2022/03/05 08:24:47;;;;;;;25.60;17.87;;;3.30;99.90;;;;;;5013351;28;20189;-68
2022/03/05 08:27:12;;;;;;;21.10;17.63;;;3.40;99.90;;;;;;5012497;28;20410;-69
2022/03/05 08:29:38;;;;;;;22.83;15.30;;;3.40;99.90;;;;;;5013280;28;20172;-68
2022/03/05 08:32:04;;;;;;;23.30;17.43;;;3.40;99.90;;;;;;5013326;28;20523;-69
2022/03/05 08:34:29;;;;;;;23.10;18.17;;;3.60;99.90;;;;;;5011847;28;20188;-68
2022/03/05 08:36:55;;;;;;;22.97;16.63;;;3.60;99.90;;;;;;5011981;28;20679;-68
2022/03/05 08:39:20;;;;;;;21.10;17.43;;;3.60;99.90;;;;;;5013143;28;20645;-69
2022/03/05 08:41:47;;;;;;;23.73;16.93;;;3.70;99.90;;;;;;5011783;28;20238;-69
2022/03/05 08:44:13;;;;;;;25.43;16.37;;;3.80;99.90;;;;;;5013139;28;20199;-69
2022/03/05 08:46:39;;;;;;;21.43;16.63;;;4.00;99.90;;;;;;5011927;28;20410;-69
2022/03/05 08:49:05;;;;;;;23.17;17.63;;;4.00;99.90;;;;;;5013020;28;20510;-69
2022/03/05 08:51:30;;;;;;;27.20;17.57;;;4.10;99.90;;;;;;5013401;28;20531;-68
2022/03/05 08:53:56;;;;;;;22.40;16.60;;;4.00;99.90;;;;;;5013321;28;20191;-68
2022/03/05 08:56:23;;;;;;;22.20;17.63;;;4.10;99.90;;;;;;5012693;28;20258;-69
2022/03/05 08:58:49;;;;;;;22.33;17.30;;;4.20;99.90;;;;;;5013334;28;20164;-68
2022/03/05 09:01:14;;;;;;;26.03;18.00;;;4.10;99.90;;;;;;5013278;28;20434;-68
2022/03/05 09:03:41;;;;;;;24.43;17.10;;;4.20;99.90;;;;;;5013186;28;20455;-69
2022/03/05 09:06:06;;;;;;;23.43;15.97;;;4.10;99.90;;;;;;5013150;28;20164;-68
2022/03/05 09:08:32;;;;;;;18.93;15.90;;;4.10;99.90;;;;;;5013053;28;20477;-68
2022/03/05 09:10:58;;;;;;;21.27;15.47;;;4.30;99.90;;;;;;5012468;28;20169;-69
2022/03/05 09:13:23;;;;;;;23.30;16.13;;;4.30;99.90;;;;;;5013236;28;20176;-68
2022/03/05 09:15:49;;;;;;;21.07;16.90;;;4.40;99.90;;;;;;5012831;28;20164;-68
2022/03/05 09:18:15;;;;;;;21.27;15.87;;;4.50;99.90;;;;;;5012855;28;20167;-68
2022/03/05 09:20:43;;;;;;;23.30;16.70;;;4.50;99.90;;;;;;5016078;28;20247;-68
2022/03/05 09:23:09;;;;;;;20.07;15.10;;;4.60;99.90;;;;;;5017561;28;20195;-68
2022/03/05 09:25:34;;;;;;;18.17;14.97;;;4.60;99.90;;;;;;5016998;28;20438;-68
2022/03/05 09:28:00;;;;;;;19.47;15.40;;;4.70;99.90;;;;;;5016451;28;20173;-69
2022/03/05 09:30:25;;;;;;;29.73;17.47;;;4.90;99.90;;;;;;5016809;28;20482;-68
2022/03/05 09:32:51;;;;;;;18.80;15.33;;;5.00;99.60;;;;;;5016484;28;20249;-68
2022/03/05 09:35:17;;;;;;;19.43;14.97;;;5.00;99.20;;;;;;5016520;28;20164;-68
2022/03/05 09:37:42;;;;;;;19.87;13.90;;;5.10;98.90;;;;;;5016522;28;20163;-68
2022/03/05 09:40:09;;;;;;;18.80;14.40;;;5.20;98.60;;;;;;5015355;28;20234;-68
2022/03/05 09:42:35;;;;;;;19.33;13.97;;;5.10;98.50;;;;;;5014641;28;20196;-68
2022/03/05 09:45:03;;;;;;;20.53;14.37;;;4.80;98.60;;;;;;5015137;28;20431;-68
2022/03/05 09:47:29;;;;;;;20.80;13.73;;;4.80;98.60;;;;;;5016370;28;20904;-69
2022/03/05 09:49:55;;;;;;;17.03;13.30;;;5.10;98.50;;;;;;5016563;28;20690;-68
2022/03/05 09:52:21;;;;;;;17.60;12.97;;;5.30;98.20;;;;;;5016184;28;20406;-68
2022/03/05 09:54:47;;;;;;;19.03;13.50;;;5.40;97.90;;;;;;5015979;28;20188;-68
2022/03/05 09:57:14;;;;;;;16.90;14.13;;;5.50;97.30;;;;;;5015913;28;20434;-68
2022/03/05 09:59:40;;;;;;;14.33;12.27;;;5.50;96.50;;;;;;5015289;28;20504;-68
2022/03/05 10:02:07;;;;;;;17.13;13.53;;;5.30;96.50;;;;;;5016338;28;20454;-68
2022/03/05 10:04:33;;;;;;;20.70;13.50;;;5.50;96.90;;;;;;5015858;28;20426;-68
2022/03/05 10:07:11;;;;;;;14.87;12.30;;;5.60;96.40;;;;;;5016023;28;20437;-68
2022/03/05 10:09:39;;;;;;;16.30;12.27;;;5.70;96.20;;;;;;5015824;28;20411;-69
2022/03/05 10:12:30;;;;;;;15.33;11.13;;;5.90;95.60;;;;;;5014413;28;20842;-68
2022/03/05 10:15:13;;;;;;;15.60;11.17;;;6.00;95.10;;;;;;5015878;28;20473;-68
2022/03/05 10:17:56;;;;;;;13.20;10.50;;;6.20;94.20;;;;;;5015705;28;20401;-69
2022/03/05 10:20:33;;;;;;;13.17;11.20;;;6.30;94.00;;;;;;5015996;28;20892;-68
2022/03/05 10:23:06;;;;;;;15.67;12.03;;;6.50;93.80;;;;;;5015236;28;21013;-69
2022/03/05 10:25:36;;;;;;;13.57;11.73;;;6.50;93.10;;;;;;5013456;28;20978;-69
2022/03/05 10:28:17;;;;;;;15.47;11.23;;;6.60;93.50;;;;;;5015542;28;20402;-69
2022/03/05 10:30:47;;;;;;;16.60;13.00;;;6.70;93.40;;;;;;5015435;28;20442;-68
2022/03/05 10:33:36;;;;;;;14.90;12.13;;;6.70;93.60;;;;;;5014032;28;20426;-69
2022/03/05 10:36:04;;;;;;;22.30;13.77;;;6.80;93.30;;;;;;4996212;28;20467;-69
2022/03/05 10:38:51;;;;;;;17.43;13.93;;;6.50;93.60;;;;;;4996004;28;20414;-69
2022/03/05 10:41:24;;;;;;;17.03;13.60;;;6.50;93.80;;;;;;5029128;28;20837;-69
2022/03/05 10:44:15;;;;;;;20.27;14.70;;;6.50;93.30;;;;;;5014128;28;20459;-69
2022/03/05 10:46:54;;;;;;;13.87;11.10;;;6.70;93.80;;;;;;5014076;28;20414;-69
2022/03/05 10:49:21;;;;;;;14.13;12.03;;;7.00;91.50;;;;;;5015552;28;20395;-69
2022/03/05 10:51:47;;;;;;;17.83;13.20;;;6.80;92.00;;;;;;5013863;28;20407;-69
2022/03/05 10:54:29;;;;;;;15.77;13.20;;;6.70;93.00;;;;;;5015223;28;20958;-69
2022/03/05 10:56:56;;;;;;;15.33;12.47;;;6.60;92.60;;;;;;5013910;28;20414;-69
2022/03/05 10:59:22;;;;;;;16.00;11.90;;;6.50;92.50;;;;;;5014614;28;20399;-69
2022/03/05 11:01:49;;;;;;;14.50;11.83;;;6.60;92.30;;;;;;5014773;28;20844;-69
2022/03/05 11:04:15;;;;;;;17.37;12.67;;;6.90;91.80;;;;;;5014772;28;20453;-69
2022/03/05 11:06:44;;;;;;;14.43;11.50;;;6.70;91.60;;;;;;5014825;28;20509;-69
2022/03/05 11:09:12;;;;;;;16.83;11.73;;;7.00;91.20;;;;;;5013539;28;20403;-69
2022/03/05 11:11:40;;;;;;;13.43;11.63;;;7.10;90.70;;;;;;5013578;28;20415;-69
2022/03/05 11:14:10;;;;;;;18.50;12.73;;;7.10;90.50;;;;;;5014638;28;20442;-69
2022/03/05 11:16:36;;;;;;;15.50;11.70;;;7.00;90.40;;;;;;5015236;28;20415;-69
2022/03/05 11:19:02;;;;;;;14.93;11.07;;;7.00;90.30;;;;;;5014553;28;20479;-69
2022/03/05 11:21:29;;;;;;;14.43;11.97;;;7.10;90.50;;;;;;5014674;28;20451;-69
2022/03/05 11:23:57;;;;;;;16.43;11.73;;;7.60;89.80;;;;;;5014741;28;20427;-69
2022/03/05 11:26:24;;;;;;;13.50;11.37;;;8.10;88.00;;;;;;5014444;28;20395;-69
2022/03/05 11:28:50;;;;;;;13.87;12.40;;;9.00;84.60;;;;;;5014063;28;20407;-69
2022/03/05 11:31:22;;;;;;;14.10;11.27;;;9.10;82.10;;;;;;5014657;28;20466;-69
2022/03/05 11:33:49;;;;;;;13.07;11.43;;;8.60;81.80;;;;;;5014203;28;20430;-69
2022/03/05 11:36:27;;;;;;;12.93;10.00;;;8.20;82.50;;;;;;5012788;28;20417;-69
2022/03/05 11:39:16;;;;;;;14.23;11.37;;;8.00;82.70;;;;;;5014116;28;20405;-69
2022/03/05 11:42:01;;;;;;;15.90;11.87;;;8.10;82.50;;;;;;5006088;28;20462;-69
2022/03/05 11:44:42;;;;;;;10.97;9.83;;;9.40;79.60;;;;;;5012227;28;20462;-69
2022/03/05 11:47:22;;;;;;;10.30;9.30;;;9.70;76.40;;;;;;5014485;28;20391;-69
2022/03/05 11:49:59;;;;;;;13.70;10.40;;;9.10;75.20;;;;;;5013909;28;20413;-70
2022/03/05 11:52:43;;;;;;;11.53;10.17;;;8.50;76.70;;;;;;5015089;28;20388;-69
2022/03/05 11:55:11;;;;;;;12.93;9.90;;;9.00;74.80;;;;;;5013822;28;20429;-69
2022/03/05 11:57:50;;;;;;;9.97;8.97;;;10.10;72.00;;;;;;5014166;28;20406;-69
2022/03/05 12:00:19;;;;;;;11.87;10.50;;;9.40;70.90;;;;;;5013468;28;20393;-70
2022/03/05 12:02:51;;;;;;;12.83;10.23;;;9.20;72.90;;;;;;5012355;28;20458;-69
2022/03/05 12:05:41;;;;;;;9.93;8.93;;;9.30;71.10;;;;;;5014164;28;20477;-69
2022/03/05 12:08:26;;;;;;;11.60;10.00;;;9.80;71.10;;;;;;5015202;28;20397;-69
2022/03/05 12:11:12;;;;;;;11.13;9.50;;;10.30;67.20;;;;;;5011085;28;20397;-69
2022/03/05 12:13:43;;;;;;;11.73;9.90;;;9.50;69.20;;;;;;5013006;28;20438;-68
2022/03/05 12:16:29;;;;;;;10.63;9.40;;;9.70;69.10;;;;;;5013645;28;20412;-69
2022/03/05 12:18:58;;;;;;;10.17;9.03;;;8.90;69.60;;;;;;5013609;28;20387;-68
2022/03/05 12:21:28;;;;;;;10.20;8.97;;;8.70;70.50;;;;;;5011923;28;20453;-69
2022/03/05 12:24:00;;;;;;;10.30;9.20;;;8.30;71.30;;;;;;5013483;28;20423;-68
2022/03/05 12:26:50;;;;;;;9.07;8.17;;;9.00;70.10;;;;;;5013054;28;20396;-68
2022/03/05 12:29:16;;;;;;;11.40;9.97;;;10.30;66.50;;;;;;5013114;28;20394;-69
2022/03/05 12:31:43;;;;;;;9.40;8.33;;;11.90;62.50;;;;;;5013602;28;20434;-69
2022/03/05 12:34:09;;;;;;;9.70;8.70;;;12.60;59.20;;;;;;5013361;28;20669;-69
2022/03/05 12:36:41;;;;;;;11.87;10.10;;;11.70;58.60;;;;;;5012710;28;20439;-69
2022/03/05 12:39:07;;;;;;;10.70;9.10;;;12.40;57.60;;;;;;5013245;28;20467;-69
2022/03/05 12:41:32;;;;;;;10.87;9.67;;;11.90;56.80;;;;;;5012963;28;21036;-69
2022/03/05 12:43:58;;;;;;;11.70;9.00;;;13.00;56.50;;;;;;5034096;22;20619;-69
2022/03/05 12:46:24;;;;;;;11.73;9.27;;;14.20;53.20;;;;;;5033004;28;20168;-68